sensor_id;sensor_type;location;lat;lon;timestamp;pressure;altitude;pressure_sealevel;temperature;humidity
69171;BME280;56279;47.902;12.308;2022-08-14T00:02:11;95136.97;;;17.09;61.90
69171;BME280;56279;47.902;12.308;2022-08-14T00:04:15;95135.25;;;17.04;62.57
69171;BME280;56279;47.902;12.308;2022-08-14T00:06:21;95136.22;;;17.00;62.67
69171;BME280;56279;47.902;12.308;2022-08-14T00:08:28;95132.19;;;16.94;62.92
69171;BME280;56279;47.902;12.308;2022-08-14T00:10:38;95138.03;;;16.87;63.41
69171;BME280;56279;47.902;12.308;2022-08-14T00:12:45;95132.41;;;16.80;63.29
69171;BME280;56279;47.902;12.308;2022-08-14T00:14:47;95127.53;;;16.74;63.49
69171;BME280;56279;47.902;12.308;2022-08-14T00:16:51;95133.06;;;16.69;63.81
69171;BME280;56279;47.902;12.308;2022-08-14T00:18:56;95133.25;;;16.64;64.24
69171;BME280;56279;47.902;12.308;2022-08-14T00:21:01;95126.50;;;16.57;64.74
69171;BME280;56279;47.902;12.308;2022-08-14T00:23:07;95131.25;;;16.52;64.89
69171;BME280;56279;47.902;12.308;2022-08-14T00:25:09;95130.28;;;16.48;64.86
69171;BME280;56279;47.902;12.308;2022-08-14T00:27:11;95121.69;;;16.42;64.96
69171;BME280;56279;47.902;12.308;2022-08-14T00:29:16;95124.50;;;16.37;65.54
69171;BME280;56279;47.902;12.308;2022-08-14T00:31:21;95128.13;;;16.33;65.98
69171;BME280;56279;47.902;12.308;2022-08-14T00:33:25;95121.09;;;16.28;66.11
69171;BME280;56279;47.902;12.308;2022-08-14T00:35:27;95117.03;;;16.22;66.43
69171;BME280;56279;47.902;12.308;2022-08-14T00:37:29;95116.88;;;16.19;66.61
69171;BME280;56279;47.902;12.308;2022-08-14T00:39:31;95113.59;;;16.13;66.53
69171;BME280;56279;47.902;12.308;2022-08-14T00:41:33;95116.41;;;16.08;66.72
69171;BME280;56279;47.902;12.308;2022-08-14T00:43:35;95114.72;;;16.04;67.10
69171;BME280;56279;47.902;12.308;2022-08-14T00:45:37;95114.56;;;16.00;67.47
69171;BME280;56279;47.902;12.308;2022-08-14T00:47:44;95113.63;;;15.96;68.04
69171;BME280;56279;47.902;12.308;2022-08-14T00:49:46;95112.69;;;15.92;68.08
69171;BME280;56279;47.902;12.308;2022-08-14T00:51:50;95119.75;;;15.88;68.79
69171;BME280;56279;47.902;12.308;2022-08-14T00:53:53;95113.03;;;15.82;69.14
69171;BME280;56279;47.902;12.308;2022-08-14T00:55:57;95107.84;;;15.77;69.44
69171;BME280;56279;47.902;12.308;2022-08-14T00:57:59;95110.69;;;15.72;69.73
69171;BME280;56279;47.902;12.308;2022-08-14T01:00:19;95105.50;;;15.67;69.80
69171;BME280;56279;47.902;12.308;2022-08-14T01:02:20;95104.25;;;15.64;70.08
69171;BME280;56279;47.902;12.308;2022-08-14T01:04:26;95102.22;;;15.61;70.41
69171;BME280;56279;47.902;12.308;2022-08-14T01:06:29;95101.00;;;15.59;70.59
69171;BME280;56279;47.902;12.308;2022-08-14T01:08:34;95090.97;;;15.56;70.80
69171;BME280;56279;47.902;12.308;2022-08-14T01:10:37;95095.03;;;15.53;70.82
69171;BME280;56279;47.902;12.308;2022-08-14T01:12:51;95084.84;;;15.55;70.73
69171;BME280;56279;47.902;12.308;2022-08-14T01:14:52;95085.94;;;15.54;70.91
69171;BME280;56279;47.902;12.308;2022-08-14T01:16:55;95082.53;;;15.54;70.86
69171;BME280;56279;47.902;12.308;2022-08-14T01:19:00;95087.06;;;15.53;70.95
69171;BME280;56279;47.902;12.308;2022-08-14T01:21:38;95088.91;;;15.53;70.59
69171;BME280;56279;47.902;12.308;2022-08-14T01:23:53;95084.72;;;15.52;70.21
69171;BME280;56279;47.902;12.308;2022-08-14T01:26:00;95079.41;;;15.52;70.06
69171;BME280;56279;47.902;12.308;2022-08-14T01:28:02;95081.25;;;15.51;69.98
69171;BME280;56279;47.902;12.308;2022-08-14T01:30:06;95076.22;;;15.50;70.29
69171;BME280;56279;47.902;12.308;2022-08-14T01:32:14;95080.00;;;15.49;70.09
69171;BME280;56279;47.902;12.308;2022-08-14T01:34:21;95077.34;;;15.49;69.77
69171;BME280;56279;47.902;12.308;2022-08-14T01:36:30;95078.91;;;15.50;69.34
69171;BME280;56279;47.902;12.308;2022-08-14T01:38:39;95078.59;;;15.51;68.92
69171;BME280;56279;47.902;12.308;2022-08-14T01:40:42;95076.41;;;15.53;68.70
69171;BME280;56279;47.902;12.308;2022-08-14T01:42:49;95075.00;;;15.56;68.33
69171;BME280;56279;47.902;12.308;2022-08-14T01:44:50;95073.28;;;15.60;67.95
69171;BME280;56279;47.902;12.308;2022-08-14T01:47:05;95063.56;;;15.64;67.71
69171;BME280;56279;47.902;12.308;2022-08-14T01:49:15;95064.06;;;15.66;67.34
69171;BME280;56279;47.902;12.308;2022-08-14T01:51:18;95065.13;;;15.65;67.61
69171;BME280;56279;47.902;12.308;2022-08-14T01:53:23;95062.81;;;15.63;67.87
69171;BME280;56279;47.902;12.308;2022-08-14T01:55:26;95062.63;;;15.60;67.81
69171;BME280;56279;47.902;12.308;2022-08-14T01:57:37;95061.09;;;15.59;68.09
69171;BME280;56279;47.902;12.308;2022-08-14T01:59:44;95053.56;;;15.61;68.13
69171;BME280;56279;47.902;12.308;2022-08-14T02:01:51;95059.03;;;15.64;67.97
69171;BME280;56279;47.902;12.308;2022-08-14T02:03:52;95053.88;;;15.68;67.73
69171;BME280;56279;47.902;12.308;2022-08-14T02:06:01;95044.78;;;15.69;67.77
69171;BME280;56279;47.902;12.308;2022-08-14T02:08:03;95045.56;;;15.69;67.63
69171;BME280;56279;47.902;12.308;2022-08-14T02:10:09;95042.44;;;15.67;68.09
69171;BME280;56279;47.902;12.308;2022-08-14T02:12:10;95042.28;;;15.64;68.16
69171;BME280;56279;47.902;12.308;2022-08-14T02:14:21;95038.69;;;15.60;68.34
69171;BME280;56279;47.902;12.308;2022-08-14T02:16:32;95044.16;;;15.55;68.57
69171;BME280;56279;47.902;12.308;2022-08-14T02:18:37;95042.44;;;15.50;68.92
69171;BME280;56279;47.902;12.308;2022-08-14T02:20:39;95032.75;;;15.46;69.33
69171;BME280;56279;47.902;12.308;2022-08-14T02:23:08;95029.94;;;15.42;69.76
69171;BME280;56279;47.902;12.308;2022-08-14T02:25:13;95034.59;;;15.37;69.59
69171;BME280;56279;47.902;12.308;2022-08-14T02:27:14;95032.88;;;15.32;69.87
69171;BME280;56279;47.902;12.308;2022-08-14T02:29:20;95027.25;;;15.25;69.54
69171;BME280;56279;47.902;12.308;2022-08-14T02:31:28;95026.94;;;15.18;69.96
69171;BME280;56279;47.902;12.308;2022-08-14T02:33:39;95022.09;;;15.11;69.96
69171;BME280;56279;47.902;12.308;2022-08-14T02:35:49;95024.59;;;15.08;70.30
69171;BME280;56279;47.902;12.308;2022-08-14T02:37:51;95027.09;;;15.04;70.90
69171;BME280;56279;47.902;12.308;2022-08-14T02:39:56;95021.94;;;14.99;70.95
69171;BME280;56279;47.902;12.308;2022-08-14T02:41:59;95020.66;;;14.97;71.13
69171;BME280;56279;47.902;12.308;2022-08-14T02:44:38;95012.38;;;14.98;70.92
69171;BME280;56279;47.902;12.308;2022-08-14T02:47:11;95008.63;;;15.08;70.53
69171;BME280;56279;47.902;12.308;2022-08-14T02:49:24;95001.31;;;15.13;70.86
69171;BME280;56279;47.902;12.308;2022-08-14T02:51:33;94993.16;;;15.18;70.64
69171;BME280;56279;47.902;12.308;2022-08-14T02:53:47;94994.56;;;15.24;71.03
69171;BME280;56279;47.902;12.308;2022-08-14T02:56:17;94994.41;;;15.30;70.80
69171;BME280;56279;47.902;12.308;2022-08-14T02:58:53;94988.78;;;15.31;70.88
69171;BME280;56279;47.902;12.308;2022-08-14T03:01:06;94986.91;;;15.32;71.24
69171;BME280;56279;47.902;12.308;2022-08-14T03:03:11;94982.19;;;15.29;71.50
69171;BME280;56279;47.902;12.308;2022-08-14T03:05:19;94984.56;;;15.21;71.43
69171;BME280;56279;47.902;12.308;2022-08-14T03:07:23;94985.50;;;15.17;72.27
69171;BME280;56279;47.902;12.308;2022-08-14T03:09:25;94986.28;;;15.17;72.06
69171;BME280;56279;47.902;12.308;2022-08-14T03:11:27;94977.38;;;15.22;72.23
69171;BME280;56279;47.902;12.308;2022-08-14T03:13:32;94980.66;;;15.28;72.53
69171;BME280;56279;47.902;12.308;2022-08-14T03:15:35;94971.72;;;15.32;72.83
69171;BME280;56279;47.902;12.308;2022-08-14T03:17:52;94976.72;;;15.34;72.74
69171;BME280;56279;47.902;12.308;2022-08-14T03:19:53;94971.56;;;15.37;72.74
69171;BME280;56279;47.902;12.308;2022-08-14T03:21:54;94965.94;;;15.39;72.52
69171;BME280;56279;47.902;12.308;2022-08-14T03:23:57;94971.72;;;15.41;72.58
69171;BME280;56279;47.902;12.308;2022-08-14T03:26:12;94971.41;;;15.42;72.68
69171;BME280;56279;47.902;12.308;2022-08-14T03:28:14;94968.75;;;15.42;72.78
69171;BME280;56279;47.902;12.308;2022-08-14T03:32:48;94985.00;;;15.41;72.75
69171;BME280;56279;47.902;12.308;2022-08-14T03:34:54;94975.97;;;15.33;73.18
69171;BME280;56279;47.902;12.308;2022-08-14T03:36:56;94988.94;;;15.26;73.35
69171;BME280;56279;47.902;12.308;2022-08-14T03:39:05;94990.34;;;15.15;73.28
69171;BME280;56279;47.902;12.308;2022-08-14T03:41:19;94993.16;;;15.01;73.54
69171;BME280;56279;47.902;12.308;2022-08-14T03:43:21;94994.25;;;14.92;73.60
69171;BME280;56279;47.902;12.308;2022-08-14T03:45:30;94995.97;;;14.79;74.06
69171;BME280;56279;47.902;12.308;2022-08-14T03:47:35;94993.28;;;14.71;74.14
69171;BME280;56279;47.902;12.308;2022-08-14T03:49:43;94990.00;;;14.65;74.66
69171;BME280;56279;47.902;12.308;2022-08-14T03:51:46;94990.44;;;14.59;75.14
69171;BME280;56279;47.902;12.308;2022-08-14T03:53:50;94978.09;;;14.54;75.18
69171;BME280;56279;47.902;12.308;2022-08-14T03:55:52;94977.16;;;14.50;75.21
69171;BME280;56279;47.902;12.308;2022-08-14T03:57:57;94976.22;;;14.46;75.36
69171;BME280;56279;47.902;12.308;2022-08-14T04:00:11;94976.34;;;14.41;75.61
69171;BME280;56279;47.902;12.308;2022-08-14T04:02:28;94972.91;;;14.40;75.53
69171;BME280;56279;47.902;12.308;2022-08-14T04:04:32;94970.25;;;14.40;75.76
69171;BME280;56279;47.902;12.308;2022-08-14T04:06:40;94967.31;;;14.42;75.90
69171;BME280;56279;47.902;12.308;2022-08-14T04:08:48;94965.91;;;14.44;75.77
69171;BME280;56279;47.902;12.308;2022-08-14T04:10:51;94958.88;;;14.48;76.10
69171;BME280;56279;47.902;12.308;2022-08-14T04:13:04;94969.03;;;14.55;76.11
69171;BME280;56279;47.902;12.308;2022-08-14T04:15:09;94965.91;;;14.62;76.06
69171;BME280;56279;47.902;12.308;2022-08-14T04:17:30;94960.94;;;14.69;76.22
69171;BME280;56279;47.902;12.308;2022-08-14T04:19:32;94954.06;;;14.76;76.14
69171;BME280;56279;47.902;12.308;2022-08-14T04:21:40;94957.50;;;14.85;76.42
69171;BME280;56279;47.902;12.308;2022-08-14T04:23:43;94950.19;;;14.91;76.63
69171;BME280;56279;47.902;12.308;2022-08-14T04:25:46;94952.69;;;14.96;76.49
69171;BME280;56279;47.902;12.308;2022-08-14T04:27:54;94949.09;;;15.00;76.60
69171;BME280;56279;47.902;12.308;2022-08-14T04:29:55;94948.44;;;15.03;76.23
69171;BME280;56279;47.902;12.308;2022-08-14T04:31:57;94945.63;;;15.08;76.61
69171;BME280;56279;47.902;12.308;2022-08-14T04:34:01;94950.31;;;15.11;76.24
69171;BME280;56279;47.902;12.308;2022-08-14T04:36:10;94948.59;;;15.15;76.28
69171;BME280;56279;47.902;12.308;2022-08-14T04:38:20;94948.75;;;15.19;76.12
69171;BME280;56279;47.902;12.308;2022-08-14T04:40:40;94948.13;;;15.22;75.68
69171;BME280;56279;47.902;12.308;2022-08-14T04:43:03;94948.59;;;15.24;75.80
69171;BME280;56279;47.902;12.308;2022-08-14T04:45:26;94953.13;;;15.23;75.74
69171;BME280;56279;47.902;12.308;2022-08-14T04:50:55;94944.97;;;15.29;75.41
69171;BME280;56279;47.902;12.308;2022-08-14T04:53:11;94948.88;;;15.31;75.53
69171;BME280;56279;47.902;12.308;2022-08-14T04:55:18;94950.13;;;15.34;75.31
69171;BME280;56279;47.902;12.308;2022-08-14T04:57:20;94952.16;;;15.37;75.62
69171;BME280;56279;47.902;12.308;2022-08-14T04:59:25;94940.91;;;15.40;75.52
69171;BME280;56279;47.902;12.308;2022-08-14T05:02:00;94945.31;;;15.44;75.12
69171;BME280;56279;47.902;12.308;2022-08-14T05:04:02;94937.94;;;15.50;75.01
69171;BME280;56279;47.902;12.308;2022-08-14T05:06:06;94931.66;;;15.54;75.03
69171;BME280;56279;47.902;12.308;2022-08-14T05:08:09;94937.28;;;15.61;74.78
69171;BME280;56279;47.902;12.308;2022-08-14T05:10:14;94933.38;;;15.67;74.40
69171;BME280;56279;47.902;12.308;2022-08-14T05:12:25;94932.41;;;15.72;74.49
69171;BME280;56279;47.902;12.308;2022-08-14T05:14:32;94936.78;;;15.76;74.41
69171;BME280;56279;47.902;12.308;2022-08-14T05:16:37;94925.63;;;15.83;74.10
69171;BME280;56279;47.902;12.308;2022-08-14T05:18:39;94930.78;;;15.88;74.15
69171;BME280;56279;47.902;12.308;2022-08-14T05:20:52;94929.50;;;15.94;73.67
69171;BME280;56279;47.902;12.308;2022-08-14T05:23:29;94927.44;;;16.00;73.78
69171;BME280;56279;47.902;12.308;2022-08-14T05:25:40;94920.53;;;16.07;73.67
69171;BME280;56279;47.902;12.308;2022-08-14T05:27:41;94925.34;;;16.14;73.44
69171;BME280;56279;47.902;12.308;2022-08-14T05:30:08;94922.97;;;16.21;73.12
69171;BME280;56279;47.902;12.308;2022-08-14T05:32:10;94914.78;;;16.26;73.27
69171;BME280;56279;47.902;12.308;2022-08-14T05:34:16;94910.84;;;16.32;73.15
69171;BME280;56279;47.902;12.308;2022-08-14T05:36:36;94908.78;;;16.37;73.01
69171;BME280;56279;47.902;12.308;2022-08-14T05:38:45;94910.47;;;16.42;72.82
69171;BME280;56279;47.902;12.308;2022-08-14T05:40:48;94905.75;;;16.47;72.77
69171;BME280;56279;47.902;12.308;2022-08-14T05:42:57;94900.22;;;16.52;72.71
69171;BME280;56279;47.902;12.308;2022-08-14T05:44:58;94902.41;;;16.59;72.69
69171;BME280;56279;47.902;12.308;2022-08-14T05:47:03;94900.31;;;16.65;72.47
69171;BME280;56279;47.902;12.308;2022-08-14T05:49:10;94899.34;;;16.69;72.23
69171;BME280;56279;47.902;12.308;2022-08-14T05:51:29;94897.72;;;16.77;72.13
69171;BME280;56279;47.902;12.308;2022-08-14T05:53:58;94901.22;;;16.89;71.82
69171;BME280;56279;47.902;12.308;2022-08-14T05:56:12;94893.78;;;16.95;71.90
69171;BME280;56279;47.902;12.308;2022-08-14T06:00:52;94893.16;;;16.98;71.66
69171;BME280;56279;47.902;12.308;2022-08-14T06:03:19;94900.06;;;16.99;71.41
69171;BME280;56279;47.902;12.308;2022-08-14T06:05:41;94905.84;;;17.01;71.48
69171;BME280;56279;47.902;12.308;2022-08-14T06:08:16;94904.84;;;17.05;71.36
69171;BME280;56279;47.902;12.308;2022-08-14T06:10:31;94906.09;;;17.08;71.24
69171;BME280;56279;47.902;12.308;2022-08-14T06:12:44;94902.09;;;17.14;71.23
69171;BME280;56279;47.902;12.308;2022-08-14T06:15:12;94905.16;;;17.24;70.77
69171;BME280;56279;47.902;12.308;2022-08-14T06:17:34;94899.59;;;17.29;70.96
69171;BME280;56279;47.902;12.308;2022-08-14T06:19:58;94903.03;;;17.30;70.84
69171;BME280;56279;47.902;12.308;2022-08-14T06:22:06;94910.06;;;17.35;70.22
69171;BME280;56279;47.902;12.308;2022-08-14T06:27:44;94914.13;;;17.53;70.10
69171;BME280;56279;47.902;12.308;2022-08-14T06:29:52;94908.63;;;17.82;68.86
69171;BME280;56279;47.902;12.308;2022-08-14T06:34:28;94911.44;;;17.98;68.97
69171;BME280;56279;47.902;12.308;2022-08-14T06:36:41;94908.53;;;17.90;69.18
69171;BME280;56279;47.902;12.308;2022-08-14T06:38:46;94912.34;;;17.89;69.27
69171;BME280;56279;47.902;12.308;2022-08-14T06:40:50;94911.19;;;17.90;69.21
69171;BME280;56279;47.902;12.308;2022-08-14T06:42:52;94909.66;;;17.89;69.08
69171;BME280;56279;47.902;12.308;2022-08-14T06:44:53;94914.22;;;17.89;69.03
69171;BME280;56279;47.902;12.308;2022-08-14T06:46:55;94912.63;;;17.88;68.72
69171;BME280;56279;47.902;12.308;2022-08-14T06:48:56;94917.97;;;17.88;68.61
69171;BME280;56279;47.902;12.308;2022-08-14T06:50:58;94921.44;;;17.88;68.34
69171;BME280;56279;47.902;12.308;2022-08-14T06:53:48;94919.91;;;17.87;68.10
69171;BME280;56279;47.902;12.308;2022-08-14T06:56:23;94918.44;;;17.90;68.19
69171;BME280;56279;47.902;12.308;2022-08-14T07:21:10;94911.66;;;18.41;67.51
69171;BME280;56279;47.902;12.308;2022-08-14T07:23:30;94908.00;;;18.45;67.42
69171;BME280;56279;47.902;12.308;2022-08-14T07:28:31;94907.22;;;18.57;66.76
69171;BME280;56279;47.902;12.308;2022-08-14T07:30:41;94912.34;;;18.62;66.44
69171;BME280;56279;47.902;12.308;2022-08-14T07:32:42;94903.06;;;18.72;66.55
69171;BME280;56279;47.902;12.308;2022-08-14T07:34:53;94907.16;;;18.81;66.05
69171;BME280;56279;47.902;12.308;2022-08-14T07:37:01;94906.69;;;18.91;65.80
69171;BME280;56279;47.902;12.308;2022-08-14T07:39:05;94912.59;;;18.97;65.84
69171;BME280;56279;47.902;12.308;2022-08-14T07:41:11;94908.88;;;19.01;65.44
69171;BME280;56279;47.902;12.308;2022-08-14T07:43:18;94909.09;;;19.08;65.50
69171;BME280;56279;47.902;12.308;2022-08-14T07:45:22;94904.81;;;19.19;64.74
69171;BME280;56279;47.902;12.308;2022-08-14T07:47:29;94901.66;;;19.29;64.96
69171;BME280;56279;47.902;12.308;2022-08-14T07:50:02;94890.22;;;19.45;64.19
69171;BME280;56279;47.902;12.308;2022-08-14T07:52:05;94890.16;;;19.57;63.94
69171;BME280;56279;47.902;12.308;2022-08-14T07:54:11;94880.47;;;19.68;63.15
69171;BME280;56279;47.902;12.308;2022-08-14T07:56:33;94876.19;;;19.79;62.01
69171;BME280;56279;47.902;12.308;2022-08-14T08:01:19;94882.84;;;19.85;62.18
69171;BME280;56279;47.902;12.308;2022-08-14T08:03:48;94872.97;;;19.89;62.08
69171;BME280;56279;47.902;12.308;2022-08-14T08:05:50;94875.75;;;19.92;61.77
69171;BME280;56279;47.902;12.308;2022-08-14T08:07:56;94862.84;;;19.98;61.40
69171;BME280;56279;47.902;12.308;2022-08-14T08:10:14;94863.81;;;20.06;61.40
69171;BME280;56279;47.902;12.308;2022-08-14T08:12:39;94863.28;;;20.16;60.49
69171;BME280;56279;47.902;12.308;2022-08-14T08:14:45;94860.81;;;20.23;60.49
69171;BME280;56279;47.902;12.308;2022-08-14T08:17:54;94863.28;;;20.31;59.82
69171;BME280;56279;47.902;12.308;2022-08-14T08:20:09;94857.66;;;20.36;59.59
69171;BME280;56279;47.902;12.308;2022-08-14T08:23:32;94855.19;;;20.47;59.91
69171;BME280;56279;47.902;12.308;2022-08-14T08:29:18;94854.75;;;20.60;58.95
69171;BME280;56279;47.902;12.308;2022-08-14T08:34:46;94852.41;;;20.78;58.30
69171;BME280;56279;47.902;12.308;2022-08-14T08:42:50;94838.53;;;21.11;57.28
69171;BME280;56279;47.902;12.308;2022-08-14T08:45:14;94841.34;;;21.18;56.74
69171;BME280;56279;47.902;12.308;2022-08-14T08:47:43;94844.16;;;21.25;56.71
69171;BME280;56279;47.902;12.308;2022-08-14T08:49:52;94843.59;;;21.35;55.36
69171;BME280;56279;47.902;12.308;2022-08-14T08:52:06;94844.97;;;21.48;55.36
69171;BME280;56279;47.902;12.308;2022-08-14T08:54:11;94849.75;;;21.58;54.84
69171;BME280;56279;47.902;12.308;2022-08-14T08:56:12;94848.44;;;21.71;54.36
69171;BME280;56279;47.902;12.308;2022-08-14T08:58:17;94846.69;;;21.82;53.84
69171;BME280;56279;47.902;12.308;2022-08-14T09:00:22;94844.28;;;21.96;53.55
69171;BME280;56279;47.902;12.308;2022-08-14T09:02:38;94843.38;;;22.12;53.06
69171;BME280;56279;47.902;12.308;2022-08-14T09:05:14;94843.28;;;22.31;52.88
69171;BME280;56279;47.902;12.308;2022-08-14T09:07:27;94843.03;;;22.43;52.30
69171;BME280;56279;47.902;12.308;2022-08-14T09:09:41;94847.81;;;22.53;52.13
69171;BME280;56279;47.902;12.308;2022-08-14T09:11:52;94838.75;;;22.64;51.60
69171;BME280;56279;47.902;12.308;2022-08-14T09:13:55;94836.97;;;22.76;52.44
69171;BME280;56279;47.902;12.308;2022-08-14T09:15:58;94831.75;;;22.86;51.90
69171;BME280;56279;47.902;12.308;2022-08-14T09:18:01;94839.94;;;22.97;51.13
69171;BME280;56279;47.902;12.308;2022-08-14T09:20:09;94831.19;;;23.03;50.95
69171;BME280;56279;47.902;12.308;2022-08-14T09:22:13;94832.00;;;23.07;49.81
69171;BME280;56279;47.902;12.308;2022-08-14T09:24:19;94834.31;;;23.09;49.39
69171;BME280;56279;47.902;12.308;2022-08-14T09:26:24;94830.50;;;23.13;49.79
69171;BME280;56279;47.902;12.308;2022-08-14T09:28:25;94839.84;;;23.19;50.05
69171;BME280;56279;47.902;12.308;2022-08-14T09:30:31;94824.47;;;23.23;50.25
69171;BME280;56279;47.902;12.308;2022-08-14T09:35:13;94819.56;;;23.32;50.25
69171;BME280;56279;47.902;12.308;2022-08-14T09:40:07;94813.94;;;23.45;50.24
69171;BME280;56279;47.902;12.308;2022-08-14T09:45:19;94809.09;;;23.61;49.51
69171;BME280;56279;47.902;12.308;2022-08-14T09:47:42;94807.97;;;23.65;49.92
69171;BME280;56279;47.902;12.308;2022-08-14T09:49:44;94801.09;;;23.71;49.63
69171;BME280;56279;47.902;12.308;2022-08-14T09:51:46;94798.03;;;23.73;49.72
69171;BME280;56279;47.902;12.308;2022-08-14T09:54:00;94801.09;;;23.71;49.29
69171;BME280;56279;47.902;12.308;2022-08-14T09:56:02;94810.00;;;23.75;49.00
69171;BME280;56279;47.902;12.308;2022-08-14T09:58:21;94798.50;;;23.82;49.32
69171;BME280;56279;47.902;12.308;2022-08-14T10:00:44;94793.56;;;23.91;49.56
69171;BME280;56279;47.902;12.308;2022-08-14T10:02:56;94794.34;;;23.95;49.66
69171;BME280;56279;47.902;12.308;2022-08-14T10:07:07;94785.56;;;24.05;48.96
69171;BME280;56279;47.902;12.308;2022-08-14T10:09:10;94781.00;;;24.09;48.96
69171;BME280;56279;47.902;12.308;2022-08-14T10:11:32;94776.44;;;24.13;48.47
69171;BME280;56279;47.902;12.308;2022-08-14T10:13:39;94776.81;;;24.19;47.74
69171;BME280;56279;47.902;12.308;2022-08-14T10:15:46;94782.25;;;24.26;47.35
69171;BME280;56279;47.902;12.308;2022-08-14T10:18:01;94778.81;;;24.29;46.48
69171;BME280;56279;47.902;12.308;2022-08-14T10:20:09;94781.16;;;24.34;47.02
69171;BME280;56279;47.902;12.308;2022-08-14T10:27:21;94773.94;;;24.55;46.43
69171;BME280;56279;47.902;12.308;2022-08-14T10:30:38;94769.31;;;24.56;46.73
69171;BME280;56279;47.902;12.308;2022-08-14T10:32:19;94772.75;;;24.53;46.23
69171;BME280;56279;47.902;12.308;2022-08-14T10:34:33;94766.22;;;24.50;46.46
69171;BME280;56279;47.902;12.308;2022-08-14T10:36:40;94765.81;;;24.48;46.49
69171;BME280;56279;47.902;12.308;2022-08-14T10:38:56;94771.63;;;24.50;45.83
69171;BME280;56279;47.902;12.308;2022-08-14T10:41:16;94765.44;;;24.53;45.10
69171;BME280;56279;47.902;12.308;2022-08-14T10:43:23;94767.41;;;24.56;44.46
69171;BME280;56279;47.902;12.308;2022-08-14T10:45:34;94764.34;;;24.61;44.70
69171;BME280;56279;47.902;12.308;2022-08-14T10:47:39;94760.88;;;24.64;45.42
69171;BME280;56279;47.902;12.308;2022-08-14T10:49:42;94765.16;;;24.69;44.88
69171;BME280;56279;47.902;12.308;2022-08-14T10:54:43;94759.81;;;24.80;45.23
69171;BME280;56279;47.902;12.308;2022-08-14T10:56:45;94758.28;;;24.86;43.06
69171;BME280;56279;47.902;12.308;2022-08-14T10:59:43;94761.00;;;24.93;44.39
69171;BME280;56279;47.902;12.308;2022-08-14T11:05:20;94755.63;;;25.03;44.34
69171;BME280;56279;47.902;12.308;2022-08-14T11:08:31;94747.16;;;25.12;43.99
69171;BME280;56279;47.902;12.308;2022-08-14T11:10:42;94749.88;;;25.12;43.47
69171;BME280;56279;47.902;12.308;2022-08-14T11:12:53;94748.34;;;25.18;43.40
69171;BME280;56279;47.902;12.308;2022-08-14T11:15:01;94751.81;;;25.18;43.43
69171;BME280;56279;47.902;12.308;2022-08-14T11:38:07;94709.44;;;25.58;40.25
69171;BME280;56279;47.902;12.308;2022-08-14T11:40:20;94708.66;;;25.57;42.20
69171;BME280;56279;47.902;12.308;2022-08-14T11:42:25;94710.19;;;25.62;41.75
69171;BME280;56279;47.902;12.308;2022-08-14T11:44:32;94708.66;;;25.64;41.25
69171;BME280;56279;47.902;12.308;2022-08-14T11:47:19;94705.94;;;25.61;39.89
69171;BME280;56279;47.902;12.308;2022-08-14T11:49:31;94704.03;;;25.65;39.17
69171;BME280;56279;47.902;12.308;2022-08-14T11:51:38;94701.69;;;25.70;39.83
69171;BME280;56279;47.902;12.308;2022-08-14T11:54:09;94699.72;;;25.74;41.11
69171;BME280;56279;47.902;12.308;2022-08-14T11:59:25;94690.84;;;25.91;40.43
69171;BME280;56279;47.902;12.308;2022-08-14T12:04:53;94676.91;;;26.03;39.65
69171;BME280;56279;47.902;12.308;2022-08-14T12:07:48;94674.59;;;26.02;40.13
69171;BME280;56279;47.902;12.308;2022-08-14T12:10:09;94679.59;;;26.07;41.29
69171;BME280;56279;47.902;12.308;2022-08-14T12:12:14;94668.78;;;26.14;41.60
69171;BME280;56279;47.902;12.308;2022-08-14T12:14:19;94670.72;;;26.17;41.87
69171;BME280;56279;47.902;12.308;2022-08-14T12:19:13;94671.84;;;26.27;41.80
69171;BME280;56279;47.902;12.308;2022-08-14T12:22:42;94663.69;;;26.30;41.51
69171;BME280;56279;47.902;12.308;2022-08-14T12:25:28;94661.72;;;26.38;41.48
69171;BME280;56279;47.902;12.308;2022-08-14T12:28:01;94653.22;;;26.43;41.54
69171;BME280;56279;47.902;12.308;2022-08-14T12:30:11;94649.69;;;26.49;41.01
69171;BME280;56279;47.902;12.308;2022-08-14T12:32:22;94642.34;;;26.50;41.59
69171;BME280;56279;47.902;12.308;2022-08-14T12:34:38;94645.44;;;26.52;39.06
69171;BME280;56279;47.902;12.308;2022-08-14T12:40:51;94631.81;;;26.66;40.54
69171;BME280;56279;47.902;12.308;2022-08-14T12:43:19;94637.59;;;26.71;41.53
69171;BME280;56279;47.902;12.308;2022-08-14T12:45:30;94624.06;;;26.75;41.34
69171;BME280;56279;47.902;12.308;2022-08-14T12:47:36;94632.53;;;26.81;40.79
69171;BME280;56279;47.902;12.308;2022-08-14T12:50:40;94611.22;;;26.86;39.50
69171;BME280;56279;47.902;12.308;2022-08-14T12:52:50;94620.47;;;26.92;39.13
69171;BME280;56279;47.902;12.308;2022-08-14T12:55:05;94618.13;;;26.94;39.52
69171;BME280;56279;47.902;12.308;2022-08-14T12:57:16;94615.78;;;26.96;39.90
69171;BME280;56279;47.902;12.308;2022-08-14T12:59:28;94608.03;;;26.98;39.68
69171;BME280;56279;47.902;12.308;2022-08-14T13:20:33;94588.09;;;27.22;37.99
69171;BME280;56279;47.902;12.308;2022-08-14T14:36:04;94507.84;;;28.87;37.39
69171;BME280;56279;47.902;12.308;2022-08-14T14:43:41;94514.00;;;29.10;35.96
69171;BME280;56279;47.902;12.308;2022-08-14T15:01:09;94497.75;;;29.53;33.76
69171;BME280;56279;47.902;12.308;2022-08-14T15:03:17;94496.44;;;29.61;33.98
69171;BME280;56279;47.902;12.308;2022-08-14T15:05:48;94499.34;;;29.70;34.67
69171;BME280;56279;47.902;12.308;2022-08-14T15:11:34;94487.16;;;29.98;33.83
69171;BME280;56279;47.902;12.308;2022-08-14T15:13:38;94487.63;;;30.13;33.77
69171;BME280;56279;47.902;12.308;2022-08-14T15:15:40;94495.97;;;30.22;33.89